Time;durP1;ratioP1;P1;durP2;ratioP2;P2;SDS_P1;SDS_P2;PMS_P1;PMS_P2;Temp;Humidity;BMP_temperature;BMP_pressure;BME280_temperature;BME280_humidity;BME280_pressure;Samples;Min_cycle;Max_cycle;Signal;HPM_P1;HPM_P2
2023/08/30 00:02:05;;;;;;;8.60;7.10;;;;;;;17.97;42.24;100492.75;5052747;28;20037;-78
2023/08/30 00:04:34;;;;;;;7.32;6.53;;;;;;;17.99;41.86;100501.69;5030263;28;20132;-79
2023/08/30 00:07:02;;;;;;;8.27;6.97;;;;;;;17.96;41.93;100499.34;5026067;28;20049;-79
2023/08/30 00:09:30;;;;;;;7.25;6.22;;;;;;;17.95;41.87;100494.84;5030589;28;20048;-78
2023/08/30 00:11:58;;;;;;;8.60;6.90;;;;;;;17.95;42.28;100499.50;5029811;28;20049;-80
2023/08/30 00:14:26;;;;;;;8.15;7.03;;;;;;;17.94;41.96;100493.13;5032937;28;20049;-79
2023/08/30 00:16:54;;;;;;;8.45;7.35;;;;;;;17.93;42.48;100494.16;5026956;28;20059;-79
2023/08/30 00:19:20;;;;;;;8.40;7.35;;;;;;;17.94;42.49;100500.56;5031390;28;20064;-79
2023/08/30 00:21:50;;;;;;;8.98;7.15;;;;;;;17.95;42.32;100493.97;5029163;28;20416;-79
2023/08/30 00:24:17;;;;;;;8.73;7.50;;;;;;;17.91;42.63;100490.72;5031166;28;20285;-79
2023/08/30 00:26:45;;;;;;;8.88;7.68;;;;;;;17.90;42.15;100497.31;5030711;28;20041;-79
2023/08/30 00:29:14;;;;;;;8.90;6.82;;;;;;;17.91;42.29;100492.63;5027884;28;20110;-80
2023/08/30 00:31:42;;;;;;;9.25;7.78;;;;;;;17.89;42.63;100491.97;5028941;28;20600;-78
2023/08/30 00:34:10;;;;;;;9.18;7.97;;;;;;;17.88;42.47;100493.88;5023412;28;20553;-79
2023/08/30 00:36:38;;;;;;;10.20;7.97;;;;;;;17.87;42.84;100496.84;5028546;28;20039;-79
2023/08/30 00:39:08;;;;;;;9.88;7.53;;;;;;;17.87;42.82;100494.94;5031519;28;20045;-79
2023/08/30 00:41:36;;;;;;;9.50;8.35;;;;;;;17.83;42.35;100487.19;5047770;28;20516;-79
2023/08/30 00:44:05;;;;;;;9.75;7.18;;;;;;;17.81;42.69;100489.31;5033186;28;20132;-79
2023/08/30 00:46:34;;;;;;;8.18;6.80;;;;;;;17.80;42.33;100493.13;5031307;28;20049;-79
2023/08/30 00:49:02;;;;;;;9.18;7.47;;;;;;;17.76;42.50;100492.63;5030382;28;20041;-78
2023/08/30 00:51:31;;;;;;;8.63;6.78;;;;;;;17.73;43.15;100485.53;5045802;28;20544;-79
2023/08/30 00:54:00;;;;;;;9.32;6.93;;;;;;;17.75;42.83;100482.59;5034664;28;20060;-79
2023/08/30 00:56:30;;;;;;;8.05;6.78;;;;;;;17.75;42.93;100479.84;5028901;28;20135;-79
2023/08/30 00:58:58;;;;;;;8.82;7.72;;;;;;;17.72;43.16;100483.84;5031985;28;20166;-79
2023/08/30 01:01:27;;;;;;;9.73;8.10;;;;;;;17.71;42.85;100475.72;5035055;28;20036;-79
2023/08/30 01:03:54;;;;;;;10.70;8.38;;;;;;;17.68;43.30;100471.41;5034822;28;20063;-79
2023/08/30 01:06:22;;;;;;;8.52;7.28;;;;;;;17.68;43.03;100479.72;5036152;28;20049;-79
2023/08/30 01:08:51;;;;;;;10.13;8.15;;;;;;;17.67;43.05;100478.00;5033812;28;20405;-79
2023/08/30 01:11:26;;;;;;;9.55;8.00;;;;;;;17.68;43.40;100471.41;5032948;28;20505;-79
2023/08/30 01:14:00;;;;;;;9.40;7.75;;;;;;;17.66;43.12;100467.97;5031619;28;20056;-79
2023/08/30 01:16:28;;;;;;;10.07;7.95;;;;;;;17.62;43.23;100465.78;5029628;28;20049;-78
2023/08/30 01:18:57;;;;;;;9.45;6.85;;;;;;;17.61;43.10;100455.75;5030352;28;20516;-79
2023/08/30 01:21:36;;;;;;;8.95;7.25;;;;;;;17.61;43.46;100453.00;5018085;28;20068;-79
2023/08/30 01:24:08;;;;;;;8.10;6.95;;;;;;;17.59;43.28;100447.63;5009307;28;20417;-79
2023/08/30 01:26:44;;;;;;;8.82;7.10;;;;;;;17.59;43.16;100447.63;5009847;28;20064;-79
2023/08/30 01:29:16;;;;;;;8.25;6.90;;;;;;;17.57;43.34;100440.56;5021935;28;20077;-79
2023/08/30 01:31:46;;;;;;;9.30;7.40;;;;;;;17.52;43.32;100437.53;5025710;28;20049;-79
2023/08/30 01:34:16;;;;;;;8.43;7.15;;;;;;;17.53;43.39;100436.47;5013152;28;20364;-79
2023/08/30 01:36:45;;;;;;;8.88;6.80;;;;;;;17.49;43.05;100427.69;5027112;28;20056;-78
2023/08/30 01:39:14;;;;;;;10.23;7.05;;;;;;;17.50;42.95;100440.47;5017679;28;20073;-79
2023/08/30 01:41:44;;;;;;;8.30;6.70;;;;;;;17.45;42.91;100433.81;5035202;28;20041;-77
2023/08/30 01:44:16;;;;;;;9.43;7.90;;;;;;;17.46;43.14;100439.16;5047742;28;20082;-78
2023/08/30 01:46:45;;;;;;;;;;;;;;;17.17;44.25;100439.09;5044047;28;20568;-80
2023/08/30 01:49:14;;;;;;;9.15;6.47;;;;;;;17.35;42.92;100443.22;5046326;28;19943;-79
2023/08/30 01:51:42;;;;;;;7.15;5.78;;;;;;;17.36;43.19;100436.66;5025453;28;20037;-78
2023/08/30 01:54:14;;;;;;;8.77;7.25;;;;;;;17.37;43.06;100441.16;5031280;28;20128;-79
2023/08/30 01:56:42;;;;;;;;;;;;;;;17.07;43.98;100447.69;5027819;28;20136;-80
2023/08/30 01:59:10;;;;;;;8.65;6.65;;;;;;;17.28;43.08;100441.41;5030253;28;20412;-79
2023/08/30 02:01:39;;;;;;;8.32;6.82;;;;;;;17.31;43.37;100438.28;5029977;28;20091;-78
2023/08/30 02:04:07;;;;;;;8.30;6.88;;;;;;;17.27;43.22;100443.31;5030111;28;20116;-79
2023/08/30 02:06:43;;;;;;;8.90;7.05;;;;;;;17.28;43.38;100447.81;5027161;28;20497;-79
2023/08/30 02:09:18;;;;;;;8.88;7.35;;;;;;;17.27;43.94;100450.75;5031699;28;20064;-78
2023/08/30 02:11:49;;;;;;;8.63;6.93;;;;;;;17.21;43.42;100459.81;5050193;28;20711;-79
2023/08/30 02:14:19;;;;;;;7.95;6.93;;;;;;;17.20;43.15;100452.56;5032642;28;20037;-79
2023/08/30 02:16:49;;;;;;;9.02;7.03;;;;;;;17.19;43.25;100453.59;5033276;28;20501;-79
2023/08/30 02:19:20;;;;;;;9.05;6.90;;;;;;;17.16;43.23;100445.66;5029955;28;20055;-79
2023/08/30 02:21:49;;;;;;;8.50;6.47;;;;;;;17.13;43.10;100444.16;5032110;28;20140;-78
2023/08/30 02:24:18;;;;;;;7.70;6.15;;;;;;;17.11;43.32;100445.38;5029182;28;20304;-79
2023/08/30 02:26:46;;;;;;;8.60;6.85;;;;;;;17.09;43.26;100442.78;5030415;28;20041;-79
2023/08/30 02:29:14;;;;;;;8.32;6.32;;;;;;;17.05;43.53;100438.69;5049702;28;20083;-79
2023/08/30 02:31:42;;;;;;;8.70;7.03;;;;;;;17.01;43.49;100440.09;5050043;28;20072;-79
2023/08/30 02:34:12;;;;;;;8.82;6.75;;;;;;;17.01;43.64;100440.09;5034679;28;20056;-79
2023/08/30 02:36:40;;;;;;;8.98;6.70;;;;;;;16.96;43.23;100443.41;5034198;28;20543;-79
2023/08/30 02:39:08;;;;;;;9.57;7.32;;;;;;;16.93;43.26;100442.91;5051939;28;20412;-78
2023/08/30 02:41:36;;;;;;;8.82;7.10;;;;;;;16.90;43.83;100437.78;5035084;28;20045;-80
2023/08/30 02:44:04;;;;;;;9.40;6.55;;;;;;;16.87;43.40;100427.94;5036598;28;20037;-79
2023/08/30 02:46:31;;;;;;;11.93;7.97;;;;;;;16.83;43.93;100425.72;5034731;28;20045;-78
2023/08/30 02:48:59;;;;;;;8.98;7.30;;;;;;;16.78;43.80;100425.44;5044928;28;20040;-79
2023/08/30 02:51:29;;;;;;;10.77;7.82;;;;;;;16.77;43.47;100426.47;5035443;28;20055;-79
2023/08/30 02:53:56;;;;;;;9.75;7.18;;;;;;;16.72;43.62;100428.94;5048114;28;20132;-79
2023/08/30 02:56:25;;;;;;;9.25;6.75;;;;;;;16.68;43.74;100417.38;5045491;28;20073;-79
2023/08/30 02:58:53;;;;;;;9.48;7.18;;;;;;;16.67;43.62;100425.84;5031878;28;20104;-79
2023/08/30 03:01:20;;;;;;;8.25;6.50;;;;;;;16.64;43.96;100408.63;5032828;28;20045;-79
2023/08/30 03:03:49;;;;;;;8.45;6.72;;;;;;;16.64;44.26;100416.91;5037213;28;20052;-80
2023/08/30 03:06:19;;;;;;;8.35;6.53;;;;;;;16.64;43.71;100416.91;5036395;28;20488;-80
2023/08/30 03:08:48;;;;;;;9.38;7.03;;;;;;;16.67;44.42;100418.41;5035188;28;20065;-78
2023/08/30 03:11:16;;;;;;;9.95;6.82;;;;;;;16.66;43.81;100419.47;5050126;28;20495;-79
2023/08/30 03:13:50;;;;;;;7.70;6.60;;;;;;;16.67;44.29;100409.28;5032378;28;20041;-80
2023/08/30 03:16:18;;;;;;;9.82;7.60;;;;;;;16.67;44.02;100410.13;5030780;28;20145;-80
2023/08/30 03:18:47;;;;;;;8.85;7.00;;;;;;;16.67;43.87;100407.38;5032077;28;20278;-79
2023/08/30 03:21:15;;;;;;;8.38;6.88;;;;;;;16.67;44.19;100406.50;5052357;28;20048;-80
2023/08/30 03:23:43;;;;;;;8.27;6.65;;;;;;;16.67;43.83;100403.75;5033059;28;20063;-80
2023/08/30 03:26:14;;;;;;;8.70;6.95;;;;;;;16.68;44.31;100400.81;5014679;28;20505;-79
2023/08/30 03:28:42;;;;;;;8.15;6.97;;;;;;;16.64;44.10;100399.47;5030208;28;20049;-80
2023/08/30 03:31:15;;;;;;;8.90;6.88;;;;;;;16.64;44.21;100393.94;5031908;28;20045;-79
2023/08/30 03:33:45;;;;;;;7.75;6.15;;;;;;;16.61;44.23;100403.44;5032921;28;20041;-79
2023/08/30 03:36:15;;;;;;;8.63;7.07;;;;;;;16.61;44.39;100394.31;5030765;28;20045;-79
2023/08/30 03:38:44;;;;;;;8.18;6.20;;;;;;;16.60;43.81;100393.44;5028660;28;20106;-78
2023/08/30 03:41:15;;;;;;;9.35;7.32;;;;;;;16.61;44.14;100389.63;5028613;28;20140;-79
2023/08/30 03:43:44;;;;;;;8.27;6.25;;;;;;;16.56;44.14;100392.09;5032201;28;20524;-79
2023/08/30 03:46:12;;;;;;;9.43;7.00;;;;;;;16.58;43.86;100394.66;5029969;28;20098;-80
2023/08/30 03:48:40;;;;;;;8.40;6.65;;;;;;;16.55;44.41;100384.84;5045151;28;20032;-78
2023/08/30 03:51:08;;;;;;;8.63;6.72;;;;;;;16.53;43.77;100389.69;5043873;28;20041;-79
2023/08/30 03:53:36;;;;;;;8.70;7.10;;;;;;;16.52;44.06;100392.66;5026267;28;20033;-80
2023/08/30 03:56:05;;;;;;;8.10;6.55;;;;;;;16.49;44.28;100388.38;5028505;28;20136;-79
2023/08/30 03:58:34;;;;;;;8.02;6.95;;;;;;;16.48;44.10;100394.06;5012440;28;20049;-79
2023/08/30 04:01:02;;;;;;;7.75;6.30;;;;;;;16.43;44.14;100388.22;5022726;28;20055;-79
2023/08/30 04:03:30;;;;;;;8.20;6.60;;;;;;;16.41;44.02;100393.94;5032621;28;20044;-79
2023/08/30 04:05:58;;;;;;;7.25;6.05;;;;;;;16.40;44.51;100396.91;5038186;28;20044;-80
2023/08/30 04:08:27;;;;;;;8.10;6.13;;;;;;;16.39;44.72;100392.41;5052029;28;20397;-80
2023/08/30 04:10:55;;;;;;;8.13;5.72;;;;;;;16.39;44.23;100386.88;5032437;28;20281;-80
2023/08/30 04:13:24;;;;;;;7.95;5.88;;;;;;;16.38;44.89;100382.41;5032932;28;20109;-80
2023/08/30 04:15:57;;;;;;;7.38;5.90;;;;;;;16.39;44.89;100373.06;5032516;28;20032;-80
2023/08/30 04:18:25;;;;;;;10.15;6.97;;;;;;;16.38;44.33;100377.75;5033417;28;20064;-79
2023/08/30 04:20:53;;;;;;;9.25;6.80;;;;;;;16.38;44.33;100379.63;5029672;28;20049;-80
2023/08/30 04:23:21;;;;;;;8.35;7.15;;;;;;;16.37;44.58;100377.91;5035289;28;20535;-79
2023/08/30 04:25:50;;;;;;;7.40;6.35;;;;;;;16.35;44.31;100378.09;5033458;28;20041;-80
2023/08/30 04:28:18;;;;;;;8.68;6.85;;;;;;;16.33;44.88;100380.16;5037983;28;20048;-79
2023/08/30 04:30:46;;;;;;;7.60;6.40;;;;;;;16.31;44.40;100370.38;5037554;28;20148;-79
2023/08/30 04:33:15;;;;;;;8.43;6.60;;;;;;;16.30;44.68;100368.66;5035112;28;20516;-79
2023/08/30 04:35:43;;;;;;;7.95;6.43;;;;;;;16.26;44.46;100369.00;5037417;28;20037;-79
2023/08/30 04:38:12;;;;;;;8.10;6.13;;;;;;;16.24;44.59;100365.59;5050217;28;20143;-80
2023/08/30 04:40:40;;;;;;;9.95;7.10;;;;;;;16.23;45.15;100368.53;5032282;28;20450;-80
2023/08/30 04:45:50;;;;;;;8.90;7.20;;;;;;;16.20;45.18;100364.22;5015987;28;20540;-79
2023/08/30 04:48:20;;;;;;;10.43;7.43;;;;;;;16.21;44.80;100365.09;5012385;28;20045;-80
2023/08/30 04:50:48;;;;;;;9.98;7.22;;;;;;;16.17;45.14;100364.59;5032620;28;20124;-79
2023/08/30 04:53:16;;;;;;;8.85;7.10;;;;;;;16.18;45.31;100354.41;5014452;28;20044;-79
2023/08/30 04:55:44;;;;;;;10.27;8.30;;;;;;;16.16;44.90;100351.81;5011520;28;20516;-77
2023/08/30 04:58:11;;;;;;;9.05;7.20;;;;;;;16.14;44.92;100356.66;5016041;28;20053;-78
2023/08/30 05:00:39;;;;;;;10.25;7.63;;;;;;;16.14;44.95;100353.03;5022606;28;20042;-78
2023/08/30 05:03:08;;;;;;;9.32;7.15;;;;;;;16.13;45.17;100351.31;5029101;28;20048;-78
2023/08/30 05:05:37;;;;;;;9.60;7.72;;;;;;;16.12;45.57;100347.69;5030007;28;20407;-78
2023/08/30 05:08:06;;;;;;;11.48;8.45;;;;;;;16.10;45.26;100351.66;5027871;28;20037;-79
2023/08/30 05:10:34;;;;;;;10.23;7.82;;;;;;;16.07;45.72;100347.38;5028704;28;20111;-78
2023/08/30 05:13:04;;;;;;;10.25;8.43;;;;;;;16.06;45.38;100340.16;5027253;28;20053;-78
2023/08/30 05:15:32;;;;;;;11.20;8.60;;;;;;;16.06;45.59;100339.28;5035721;28;20520;-78
2023/08/30 05:18:01;;;;;;;10.52;8.38;;;;;;;16.05;45.66;100338.41;5032856;28;20045;-78
2023/08/30 05:20:29;;;;;;;11.63;8.75;;;;;;;16.04;45.73;100339.47;5030560;28;20041;-80
2023/08/30 05:22:59;;;;;;;10.52;8.35;;;;;;;16.06;45.88;100333.75;5039367;28;20617;-77
2023/08/30 05:25:27;;;;;;;9.68;8.13;;;;;;;16.04;45.73;100333.06;5041277;28;20048;-80
2023/08/30 05:27:55;;;;;;;10.25;8.55;;;;;;;16.04;45.95;100324.78;5035971;28;20041;-80
2023/08/30 05:30:23;;;;;;;10.15;8.23;;;;;;;16.03;46.03;100320.31;5038920;28;20087;-80
2023/08/30 05:32:54;;;;;;;9.75;8.38;;;;;;;16.03;45.56;100314.78;5035927;28;20103;-79
2023/08/30 05:35:40;;;;;;;11.00;8.40;;;;;;;16.01;45.46;100314.09;5048570;28;20047;-81
2023/08/30 05:38:43;;;;;;;9.95;7.88;;;;;;;16.02;45.67;100310.31;5008680;28;20049;-81
2023/08/30 05:41:32;;;;;;;9.80;7.43;;;;;;;16.00;45.61;100301.38;5031380;28;20049;-80
2023/08/30 05:44:00;;;;;;;8.98;7.32;;;;;;;16.02;45.68;100305.66;5043096;28;20378;-80
2023/08/30 05:46:29;;;;;;;9.57;8.50;;;;;;;16.03;46.15;100301.00;5045148;28;20057;-81
2023/08/30 05:48:57;;;;;;;9.77;7.82;;;;;;;16.05;45.66;100296.16;5026066;28;20155;-79
2023/08/30 05:51:25;;;;;;;10.48;7.95;;;;;;;16.04;46.29;100298.06;5026607;28;20048;-80
2023/08/30 05:53:54;;;;;;;9.48;8.15;;;;;;;16.05;45.67;100290.63;5028697;28;20045;-81
2023/08/30 05:56:22;;;;;;;10.25;8.00;;;;;;;16.04;46.38;100300.81;5039981;28;20044;-80
2023/08/30 05:58:51;;;;;;;10.98;8.48;;;;;;;16.03;45.84;100296.34;5031364;28;20040;-80
2023/08/30 06:01:20;;;;;;;8.93;7.72;;;;;;;16.05;45.83;100297.00;5031202;28;20124;-82
2023/08/30 06:03:48;;;;;;;10.90;7.95;;;;;;;16.04;46.10;100297.19;5033214;28;20090;-81
2023/08/30 06:06:16;;;;;;;11.30;7.82;;;;;;;16.06;45.88;100297.88;5043809;28;20280;-81
2023/08/30 06:08:44;;;;;;;9.52;7.25;;;;;;;16.03;46.17;100288.06;5030552;28;20063;-80
2023/08/30 06:11:13;;;;;;;10.13;7.57;;;;;;;16.05;46.09;100291.50;5029002;28;20103;-80
2023/08/30 06:13:41;;;;;;;10.23;7.10;;;;;;;16.04;46.12;100289.78;5055488;28;20067;-81
2023/08/30 06:16:09;;;;;;;9.45;7.53;;;;;;;16.06;46.14;100281.31;5057566;28;20055;-81
2023/08/30 06:18:38;;;;;;;8.95;7.30;;;;;;;16.06;46.40;100281.31;5032425;28;20049;-80
2023/08/30 06:21:06;;;;;;;8.52;6.82;;;;;;;16.08;46.73;100277.34;5023614;28;20512;-80
2023/08/30 06:23:34;;;;;;;9.27;7.13;;;;;;;16.10;46.65;100290.94;5023720;28;20083;-81
2023/08/30 06:26:02;;;;;;;9.90;7.32;;;;;;;16.12;46.73;100280.56;5018449;28;20427;-82
2023/08/30 06:28:32;;;;;;;8.55;6.28;;;;;;;16.16;46.41;100281.94;5046310;28;20472;-81
2023/08/30 06:31:00;;;;;;;8.35;6.55;;;;;;;16.16;47.00;100281.94;5027002;28;20045;-81
2023/08/30 06:33:28;;;;;;;8.02;6.22;;;;;;;16.19;46.82;100271.41;5027117;28;20052;-81
2023/08/30 06:35:56;;;;;;;7.93;6.40;;;;;;;16.22;46.66;100278.47;5035865;28;20128;-80
2023/08/30 06:38:24;;;;;;;7.15;6.18;;;;;;;16.24;46.92;100277.25;5027866;28;20051;-81
2023/08/30 06:40:51;;;;;;;9.50;6.90;;;;;;;16.27;46.61;100270.47;5033095;28;20051;-81
2023/08/30 06:43:19;;;;;;;9.15;6.53;;;;;;;16.30;46.71;100275.63;5050192;28;20091;-81
2023/08/30 06:45:48;;;;;;;7.82;6.22;;;;;;;16.34;46.62;100278.84;5037309;28;20143;-83
2023/08/30 06:48:17;;;;;;;7.60;6.00;;;;;;;16.36;46.71;100274.00;5041868;28;20048;-81
2023/08/30 06:50:45;;;;;;;8.93;6.22;;;;;;;16.39;46.84;100268.13;5036597;28;20075;-82
2023/08/30 06:53:13;;;;;;;7.72;5.95;;;;;;;16.43;46.65;100267.56;5063197;28;20524;-81
2023/08/30 06:55:40;;;;;;;8.25;6.40;;;;;;;16.46;46.80;100258.03;5060280;28;20067;-81
2023/08/30 06:58:08;;;;;;;7.75;6.45;;;;;;;16.49;46.99;100265.97;5037879;28;20140;-81
2023/08/30 07:00:36;;;;;;;10.27;6.85;;;;;;;16.52;46.90;100260.06;5052972;28;20037;-81
2023/08/30 07:03:06;;;;;;;8.05;6.60;;;;;;;16.61;46.98;100264.44;5040251;28;20433;-81
2023/08/30 07:05:34;;;;;;;6.80;5.53;;;;;;;16.63;47.04;100259.59;5047818;28;20485;-82
2023/08/30 07:08:02;;;;;;;7.93;6.15;;;;;;;16.68;47.11;100256.25;5054662;28;20073;-82
2023/08/30 07:10:30;;;;;;;9.45;7.00;;;;;;;16.76;46.76;100254.28;5045618;28;20128;-82
2023/08/30 07:12:58;;;;;;;7.93;6.38;;;;;;;16.83;46.86;100251.59;5040675;28;20052;-81
2023/08/30 07:15:26;;;;;;;7.97;6.32;;;;;;;16.92;46.69;100259.63;5049529;28;20044;-81
2023/08/30 07:17:54;;;;;;;8.23;6.18;;;;;;;16.99;47.13;100256.97;5062672;28;20037;-81
2023/08/30 07:20:26;;;;;;;7.93;6.65;;;;;;;17.10;46.92;100259.28;5047214;28;20041;-81
2023/08/30 07:22:53;;;;;;;8.48;6.47;;;;;;;17.16;46.22;100250.19;5049264;28;20093;-80
2023/08/30 07:25:21;;;;;;;9.38;6.95;;;;;;;17.23;46.19;100253.06;5049090;28;20050;-81
2023/08/30 07:27:49;;;;;;;7.47;6.15;;;;;;;17.30;46.48;100246.59;5044960;28;20112;-80
2023/08/30 07:30:17;;;;;;;7.60;6.28;;;;;;;17.38;46.33;100248.38;5041024;28;20036;-81
2023/08/30 07:32:45;;;;;;;7.70;5.88;;;;;;;17.46;46.21;100247.41;5046415;28;20041;-80
2023/08/30 07:35:13;;;;;;;7.60;6.18;;;;;;;17.52;45.88;100243.84;5049526;28;20037;-80
2023/08/30 07:37:43;;;;;;;7.45;6.07;;;;;;;17.61;46.08;100246.31;5060769;28;20075;-81
2023/08/30 07:40:12;;;;;;;7.45;5.55;;;;;;;17.68;45.65;100243.63;5066989;28;20064;-81
2023/08/30 07:42:40;;;;;;;7.00;5.45;;;;;;;17.74;45.54;100240.09;5047052;28;20049;-80
2023/08/30 07:45:09;;;;;;;7.07;5.93;;;;;;;17.83;45.86;100238.91;5047814;28;20045;-81
2023/08/30 07:47:37;;;;;;;6.18;5.20;;;;;;;17.90;45.49;100242.59;5064182;28;20064;-80
2023/08/30 07:50:07;;;;;;;5.90;4.97;;;;;;;18.00;45.32;100239.50;5029230;28;20158;-82
2023/08/30 07:52:35;;;;;;;6.53;5.07;;;;;;;18.06;45.37;100231.25;5040587;28;20052;-83
2023/08/30 07:55:16;;;;;;;8.18;5.22;;;;;;;18.16;44.70;100233.69;5032259;28;20037;-82
2023/08/30 07:57:44;;;;;;;7.28;5.55;;;;;;;18.22;44.80;100238.47;5039343;28;20053;-83
2023/08/30 08:00:13;;;;;;;6.70;4.70;;;;;;;18.31;44.50;100234.47;5061701;28;20045;-83
2023/08/30 08:02:43;;;;;;;6.90;4.57;;;;;;;18.36;44.46;100231.13;5038553;28;20567;-83
2023/08/30 08:05:11;;;;;;;6.32;4.22;;;;;;;18.43;44.23;100229.25;5036191;28;20767;-82
2023/08/30 08:07:40;;;;;;;6.32;4.30;;;;;;;18.51;44.16;100234.69;5027266;28;20084;-81
2023/08/30 08:10:09;;;;;;;5.45;4.20;;;;;;;18.57;43.82;100236.63;5033133;28;20091;-83
2023/08/30 08:12:38;;;;;;;5.55;4.03;;;;;;;18.61;43.44;100232.41;5046861;28;20037;-82
2023/08/30 08:15:07;;;;;;;5.85;3.67;;;;;;;18.65;42.95;100236.47;5029146;28;20049;-83
2023/08/30 08:17:35;;;;;;;5.07;3.25;;;;;;;18.70;42.35;100233.97;5024526;28;20127;-82
2023/08/30 08:20:05;;;;;;;5.60;3.47;;;;;;;18.73;42.49;100230.78;5031076;28;20045;-83
2023/08/30 08:22:33;;;;;;;5.53;3.55;;;;;;;18.76;41.84;100237.84;5030729;28;20041;-82
2023/08/30 08:25:01;;;;;;;5.22;3.15;;;;;;;18.76;41.95;100235.06;5026689;28;20042;-82
2023/08/30 08:27:30;;;;;;;4.75;3.33;;;;;;;18.79;41.97;100231.91;5030419;28;20049;-83
2023/08/30 08:29:59;;;;;;;4.85;3.50;;;;;;;18.80;41.36;100237.22;5031159;28;20033;-83
2023/08/30 08:32:27;;;;;;;5.85;3.15;;;;;;;18.78;41.17;100225.50;5050368;28;20044;-83
2023/08/30 08:34:55;;;;;;;4.88;3.15;;;;;;;18.77;41.43;100225.72;5027348;28;20052;-82
2023/08/30 08:37:23;;;;;;;5.47;3.30;;;;;;;18.78;41.45;100228.28;5030110;28;20052;-83
2023/08/30 08:39:51;;;;;;;4.95;3.35;;;;;;;18.78;40.94;100225.50;5038874;28;20049;-85
2023/08/30 08:42:20;;;;;;;5.13;2.97;;;;;;;18.79;40.91;100230.00;5052691;28;20037;-83
2023/08/30 08:44:50;;;;;;;6.20;2.80;;;;;;;18.79;40.99;100229.13;5035753;28;20055;-82
2023/08/30 08:47:20;;;;;;;4.07;2.80;;;;;;;18.81;40.83;100224.22;5033612;28;20140;-82
2023/08/30 08:49:49;;;;;;;4.55;2.95;;;;;;;18.81;40.81;100221.44;5050574;28;20493;-83
2023/08/30 08:52:17;;;;;;;4.25;3.00;;;;;;;18.82;40.81;100220.38;5030263;28;20075;-82
2023/08/30 08:55:00;;;;;;;4.13;2.63;;;;;;;18.83;41.38;100220.19;5042684;28;20049;-82
2023/08/30 08:57:31;;;;;;;4.45;2.88;;;;;;;18.88;40.72;100214.88;5030354;28;20055;-82
2023/08/30 08:59:59;;;;;;;4.82;3.08;;;;;;;18.89;41.03;100211.06;5030165;28;20045;-82
2023/08/30 09:02:29;;;;;;;4.32;2.83;;;;;;;18.95;41.18;100216.84;5026661;28;20048;-82
2023/08/30 09:04:58;;;;;;;3.95;2.67;;;;;;;18.97;41.09;100210.03;5028084;28;20069;-82
2023/08/30 09:07:28;;;;;;;4.57;2.88;;;;;;;19.02;40.86;100224.16;5031268;28;20049;-81
2023/08/30 09:09:56;;;;;;;5.47;2.60;;;;;;;19.05;40.55;100217.34;5040272;28;20803;-81
2023/08/30 09:12:24;;;;;;;3.88;2.72;;;;;;;19.08;40.59;100222.47;5043281;28;20045;-82
2023/08/30 09:14:56;;;;;;;4.47;2.80;;;;;;;19.11;39.85;100228.47;5033588;28;20048;-82
2023/08/30 09:17:24;;;;;;;4.78;2.42;;;;;;;19.07;40.35;100226.28;5033686;28;20493;-81
2023/08/30 09:19:53;;;;;;;3.63;2.08;;;;;;;19.11;39.99;100224.84;5034522;28;20086;-81
2023/08/30 09:22:21;;;;;;;3.70;2.13;;;;;;;19.08;40.35;100226.09;5051361;28;20059;-81
2023/08/30 09:24:49;;;;;;;4.47;2.30;;;;;;;19.08;40.25;100223.31;5031032;28;20056;-82
2023/08/30 09:27:19;;;;;;;3.50;2.05;;;;;;;19.08;40.05;100228.00;5034849;28;20052;-81
2023/08/30 09:29:47;;;;;;;3.42;2.05;;;;;;;19.06;39.65;100224.59;5035836;28;20037;-82
2023/08/30 09:32:21;;;;;;;4.38;2.20;;;;;;;19.07;39.28;100218.84;5033241;28;20064;-81
2023/08/30 09:34:49;;;;;;;4.10;1.98;;;;;;;19.02;39.75;100213.06;5037572;28;20037;-82
2023/08/30 09:37:22;;;;;;;4.88;2.30;;;;;;;19.04;39.17;100212.84;5048083;28;20089;-82
2023/08/30 09:39:50;;;;;;;;;;;;;;;18.71;40.01;100202.44;5044569;28;20041;-82
2023/08/30 09:42:19;;;;;;;3.33;2.03;;;;;;;18.94;40.06;100209.59;5063015;28;19928;-81
2023/08/30 09:44:47;;;;;;;3.28;2.22;;;;;;;18.96;40.00;100199.16;5047087;28;20072;-81
2023/08/30 09:47:16;;;;;;;5.70;2.53;;;;;;;18.95;40.05;100194.69;5048118;28;20037;-81
2023/08/30 09:49:45;;;;;;;4.90;2.55;;;;;;;18.95;39.78;100194.69;5033412;28;20103;-81
2023/08/30 09:52:18;;;;;;;4.82;2.58;;;;;;;18.95;40.02;100191.91;5030342;28;20052;-81
2023/08/30 09:54:48;;;;;;;3.53;2.22;;;;;;;18.93;40.07;100194.03;5025813;28;20040;-81
2023/08/30 09:57:16;;;;;;;4.28;2.50;;;;;;;18.90;39.65;100186.97;5029676;28;20037;-81
2023/08/30 09:59:46;;;;;;;5.75;2.83;;;;;;;18.90;39.83;100186.97;5028026;28;20512;-81
2023/08/30 10:02:14;;;;;;;4.70;2.40;;;;;;;18.88;40.08;100180.78;5031455;28;20444;-81
2023/08/30 10:04:45;;;;;;;4.20;2.60;;;;;;;18.89;39.65;100190.78;5005210;28;20080;-81
2023/08/30 10:07:13;;;;;;;4.38;2.33;;;;;;;18.84;39.91;100187.78;5029111;28;20073;-81
2023/08/30 10:09:42;;;;;;;3.85;2.42;;;;;;;18.83;39.93;100189.69;5024524;28;20068;-81
2023/08/30 10:12:32;;;;;;;4.45;2.38;;;;;;;18.80;39.62;100186.50;5023723;28;20037;-81
2023/08/30 10:15:01;;;;;;;4.43;2.42;;;;;;;18.78;39.60;100177.53;5023054;28;20118;-82
2023/08/30 10:17:33;;;;;;;3.67;2.08;;;;;;;18.77;39.85;100182.22;5043714;28;20040;-81
2023/08/30 10:20:06;;;;;;;3.67;2.40;;;;;;;18.75;39.97;100180.69;5025053;28;20044;-81
2023/08/30 10:22:37;;;;;;;3.70;2.40;;;;;;;18.70;39.67;100175.78;5024881;28;20052;-82
2023/08/30 10:25:11;;;;;;;4.10;2.50;;;;;;;18.66;39.92;100171.69;5023443;28;20036;-82
2023/08/30 10:27:44;;;;;;;3.60;2.30;;;;;;;18.64;40.10;100173.78;5022737;28;20580;-82
2023/08/30 10:30:13;;;;;;;4.50;2.42;;;;;;;18.62;40.43;100175.06;5023373;28;20060;-81
2023/08/30 10:32:41;;;;;;;4.60;2.42;;;;;;;18.59;40.55;100173.56;5029483;28;20492;-82
2023/08/30 10:35:12;;;;;;;5.78;2.72;;;;;;;18.59;40.09;100169.94;5035167;28;20134;-82
2023/08/30 10:37:40;;;;;;;3.42;2.30;;;;;;;18.55;40.44;100177.81;5026665;28;20048;-82
2023/08/30 10:40:09;;;;;;;5.50;2.40;;;;;;;18.54;40.29;100180.78;5031088;28;20152;-82
2023/08/30 10:42:37;;;;;;;3.67;2.40;;;;;;;18.52;40.61;100180.97;5029323;28;20124;-80
2023/08/30 10:45:08;;;;;;;4.15;2.10;;;;;;;18.52;40.39;100181.84;5028260;28;20579;-81
2023/08/30 10:47:47;;;;;;;3.72;2.30;;;;;;;18.49;40.82;100193.31;5032508;28;20564;-81
2023/08/30 10:50:15;;;;;;;3.80;1.90;;;;;;;18.48;40.74;100205.44;5028418;28;20400;-81
2023/08/30 10:52:43;;;;;;;3.83;1.83;;;;;;;18.46;41.18;100207.56;5030598;28;20436;-81
2023/08/30 10:55:12;;;;;;;2.83;1.80;;;;;;;18.44;41.54;100217.13;5043408;28;20056;-80
2023/08/30 10:57:43;;;;;;;4.43;1.90;;;;;;;18.43;41.48;100209.88;5030281;28;20216;-82
2023/08/30 11:00:20;;;;;;;3.35;1.80;;;;;;;18.37;42.50;100222.63;5045373;28;20059;-82
2023/08/30 11:02:50;;;;;;;2.67;1.67;;;;;;;18.30;42.20;100216.16;5029612;28;20037;-81
2023/08/30 11:05:20;;;;;;;3.20;1.60;;;;;;;18.26;42.46;100223.16;5030410;28;20197;-80
2023/08/30 11:07:48;;;;;;;3.30;1.60;;;;;;;18.19;42.81;100213.06;5030918;28;20081;-81
2023/08/30 11:10:17;;;;;;;4.43;1.85;;;;;;;18.12;42.47;100221.31;5041394;28;20048;-81
2023/08/30 11:12:45;;;;;;;2.92;1.50;;;;;;;18.07;42.84;100218.28;5033164;28;20337;-81
2023/08/30 11:15:15;;;;;;;2.97;1.80;;;;;;;18.01;43.76;100216.31;5033318;28;20049;-80
2023/08/30 11:17:43;;;;;;;3.47;1.73;;;;;;;17.92;43.39;100209.19;5037609;28;20045;-81
2023/08/30 11:20:12;;;;;;;3.70;1.73;;;;;;;17.86;43.59;100213.63;5050869;28;20060;-82
2023/08/30 11:22:42;;;;;;;4.00;1.90;;;;;;;17.80;44.06;100211.66;5030240;28;20037;-80
2023/08/30 11:25:12;;;;;;;3.95;1.70;;;;;;;17.74;44.92;100216.03;5057873;28;20050;-81
2023/08/30 11:27:40;;;;;;;3.55;1.90;;;;;;;17.67;44.75;100209.56;5033782;28;20071;-82
2023/08/30 11:30:09;;;;;;;3.47;1.80;;;;;;;17.64;45.12;100217.41;5053332;28;20053;-81
2023/08/30 11:32:42;;;;;;;3.78;2.00;;;;;;;17.60;45.58;100207.75;5032389;28;20045;-80
2023/08/30 11:35:11;;;;;;;3.55;1.80;;;;;;;17.52;46.00;100211.50;5024599;28;20135;-81
2023/08/30 11:37:41;;;;;;;5.30;2.30;;;;;;;17.50;46.19;100204.44;5037884;28;20346;-80